createdAt,value
2018-11-04T00:00:05.384Z,5.10
2018-11-04T00:02:34.352Z,5.00
2018-11-04T00:05:03.979Z,5.00
2018-11-04T00:07:32.942Z,5.10
2018-11-04T00:10:01.900Z,5.40
2018-11-04T00:12:30.858Z,5.20
2018-11-04T00:14:59.841Z,5.10
2018-11-04T00:17:28.768Z,5.00
2018-11-04T00:19:57.796Z,4.80
2018-11-04T00:22:26.772Z,5.00
2018-11-04T00:24:55.708Z,5.40
2018-11-04T00:27:24.738Z,5.60
2018-11-04T00:29:53.658Z,5.20
2018-11-04T00:32:22.631Z,5.10
2018-11-04T00:34:51.562Z,5.10
2018-11-04T00:37:20.541Z,5.30
2018-11-04T00:39:49.488Z,5.20
2018-11-04T00:42:18.465Z,5.10
2018-11-04T00:44:47.462Z,5.20
2018-11-04T00:47:16.408Z,5.30
2018-11-04T00:49:45.375Z,5.20
2018-11-04T00:52:14.382Z,5.20
2018-11-04T00:54:43.307Z,5.30
2018-11-04T00:57:12.254Z,5.40
2018-11-04T00:59:42.405Z,5.50
2018-11-04T01:02:12.188Z,5.40
2018-11-04T01:04:41.133Z,5.40
2018-11-04T01:07:10.123Z,5.70
2018-11-04T01:09:39.096Z,5.70
2018-11-04T01:12:08.077Z,5.80
2018-11-04T01:14:37.004Z,6.10
2018-11-04T01:17:05.968Z,5.90
2018-11-04T01:19:34.944Z,5.90
2018-11-04T01:22:03.931Z,5.80
2018-11-04T01:24:32.908Z,5.60
2018-11-04T01:27:01.877Z,5.70
2018-11-04T01:29:30.811Z,5.90
2018-11-04T01:31:59.979Z,5.80
2018-11-04T01:34:28.935Z,5.60
2018-11-04T01:36:57.903Z,5.40
2018-11-04T01:39:26.856Z,5.40
2018-11-04T01:41:55.819Z,5.40
2018-11-04T01:44:25.183Z,5.50
2018-11-04T01:46:54.124Z,5.70
2018-11-04T01:49:23.086Z,5.80
2018-11-04T01:51:52.027Z,5.60
2018-11-04T01:54:21.000Z,5.90
2018-11-04T01:56:49.940Z,6.00
2018-11-04T01:59:18.888Z,5.80
2018-11-04T02:01:47.815Z,5.80
2018-11-04T02:04:16.772Z,5.70
2018-11-04T02:06:45.706Z,5.60
2018-11-04T02:09:14.665Z,5.50
2018-11-04T02:11:43.595Z,5.50
2018-11-04T02:14:12.544Z,5.60
2018-11-04T02:16:41.768Z,5.60
2018-11-04T02:19:11.915Z,5.50
2018-11-04T02:21:40.856Z,5.50
2018-11-04T02:24:09.867Z,5.70
2018-11-04T02:26:38.789Z,5.80
2018-11-04T02:29:07.937Z,5.50
2018-11-04T02:31:36.892Z,5.50
2018-11-04T02:34:05.936Z,5.70
2018-11-04T02:36:34.871Z,5.70
2018-11-04T02:39:04.799Z,5.70
2018-11-04T02:41:34.345Z,5.60
2018-11-04T02:44:03.409Z,5.60
2018-11-04T02:46:32.397Z,5.90
2018-11-04T02:49:01.369Z,6.00
2018-11-04T02:51:31.240Z,6.10
2018-11-04T02:54:00.225Z,6.30
2018-11-04T02:56:29.177Z,6.40
2018-11-04T02:58:58.119Z,6.50
2018-11-04T03:01:27.045Z,6.50
2018-11-04T03:03:56.032Z,6.50
2018-11-04T03:06:25.014Z,6.30
2018-11-04T03:08:53.959Z,6.20
2018-11-04T03:11:23.001Z,6.00
2018-11-04T03:13:52.240Z,6.00
2018-11-04T03:16:21.186Z,5.80
2018-11-04T03:18:50.176Z,5.90
2018-11-04T03:21:19.152Z,5.90
2018-11-04T03:23:48.174Z,6.00
2018-11-04T03:26:17.150Z,5.90
2018-11-04T03:28:46.080Z,5.80
2018-11-04T03:31:15.115Z,5.90
2018-11-04T03:33:44.078Z,5.80
2018-11-04T03:36:13.028Z,6.10
2018-11-04T03:38:42.044Z,6.20
2018-11-04T03:41:11.113Z,6.00
2018-11-04T03:43:40.060Z,5.80
2018-11-04T03:46:09.602Z,5.70
2018-11-04T03:48:38.593Z,5.80
2018-11-04T03:51:07.532Z,5.90
2018-11-04T03:53:36.495Z,6.00
2018-11-04T03:56:05.541Z,5.80
2018-11-04T03:58:34.525Z,5.80
2018-11-04T04:01:03.477Z,5.90
2018-11-04T04:03:32.411Z,5.90
2018-11-04T04:06:01.362Z,5.90
2018-11-04T04:08:30.331Z,6.00
2018-11-04T04:10:59.271Z,6.10
2018-11-04T04:13:28.248Z,6.10
2018-11-04T04:15:57.241Z,6.10
2018-11-04T04:18:26.221Z,6.10
2018-11-04T04:21:06.508Z,6.10
2018-11-04T04:23:36.106Z,6.00
2018-11-04T04:26:05.767Z,6.20
2018-11-04T04:28:34.749Z,6.20
2018-11-04T04:31:03.796Z,6.20
2018-11-04T04:33:32.737Z,6.20
2018-11-04T04:36:01.705Z,6.40
2018-11-04T04:38:30.665Z,6.20
2018-11-04T04:41:00.686Z,6.10
2018-11-04T04:43:29.667Z,6.10
2018-11-04T04:45:58.623Z,6.10
2018-11-04T04:48:27.555Z,6.00
2018-11-04T04:50:56.509Z,6.00
2018-11-04T04:53:25.957Z,6.10
2018-11-04T04:55:57.211Z,6.10
2018-11-04T04:58:27.052Z,6.00
2018-11-04T05:00:55.988Z,5.90
2018-11-04T05:03:24.963Z,5.90
2018-11-04T05:05:53.919Z,5.90
2018-11-04T05:08:22.840Z,6.00
2018-11-04T05:10:51.843Z,6.10
2018-11-04T05:13:20.857Z,6.30
2018-11-04T05:15:49.843Z,6.20
2018-11-04T05:18:18.776Z,6.30
2018-11-04T05:20:47.746Z,6.70
2018-11-04T05:23:16.703Z,6.70
2018-11-04T05:25:45.666Z,6.80
2018-11-04T05:28:15.047Z,6.60
2018-11-04T05:30:44.021Z,6.60
2018-11-04T05:33:12.964Z,6.60
2018-11-04T05:35:42.068Z,6.60
2018-11-04T05:38:11.071Z,6.60
2018-11-04T05:40:40.117Z,6.60
2018-11-04T05:43:09.067Z,6.50
2018-11-04T05:45:38.059Z,6.60
2018-11-04T05:48:06.995Z,6.80
2018-11-04T05:50:35.996Z,6.70
2018-11-04T05:53:06.053Z,6.70
2018-11-04T05:55:35.013Z,6.70
2018-11-04T05:58:03.956Z,6.80
2018-11-04T06:00:33.998Z,6.70
2018-11-04T06:03:02.932Z,6.60
2018-11-04T06:05:31.901Z,6.60
2018-11-04T06:08:00.882Z,6.80
2018-11-04T06:10:29.969Z,6.80
2018-11-04T06:12:58.901Z,7.00
2018-11-04T06:15:27.885Z,7.00
2018-11-04T06:17:56.884Z,7.10
2018-11-04T06:20:25.854Z,7.20
2018-11-04T06:22:54.826Z,7.40
2018-11-04T06:25:23.839Z,7.70
2018-11-04T06:27:52.797Z,7.70
2018-11-04T06:30:21.732Z,8.20
2018-11-04T06:32:52.513Z,8.40
2018-11-04T06:35:21.476Z,8.60
2018-11-04T06:37:55.757Z,8.70
2018-11-04T06:40:25.596Z,8.70
2018-11-04T06:42:54.615Z,8.70
2018-11-04T06:45:23.567Z,8.80
2018-11-04T06:47:52.501Z,8.80
2018-11-04T06:50:21.468Z,8.80
2018-11-04T06:52:50.406Z,8.80
2018-11-04T06:55:19.372Z,8.80
2018-11-04T06:57:48.436Z,8.80
2018-11-04T07:00:17.369Z,8.80
2018-11-04T07:02:46.626Z,8.90
2018-11-04T07:05:15.560Z,9.00
2018-11-04T07:07:44.522Z,9.00
2018-11-04T07:10:13.555Z,8.90
2018-11-04T07:12:42.532Z,9.00
2018-11-04T07:15:11.514Z,9.00
2018-11-04T07:17:40.474Z,9.10
2018-11-04T07:20:09.696Z,9.10
2018-11-04T07:22:38.929Z,9.10
2018-11-04T07:25:08.205Z,9.20
2018-11-04T07:27:37.820Z,9.20
2018-11-04T07:30:08.423Z,9.30
2018-11-04T07:32:37.437Z,9.30
2018-11-04T07:35:06.707Z,9.30
2018-11-04T07:37:35.686Z,9.30
2018-11-04T07:40:05.130Z,9.30
2018-11-04T07:42:34.150Z,9.40
2018-11-04T07:45:03.071Z,9.40
2018-11-04T07:47:32.082Z,9.40
2018-11-04T07:50:01.009Z,9.40
2018-11-04T07:52:29.975Z,9.40
2018-11-04T07:54:58.893Z,9.40
2018-11-04T07:57:27.941Z,9.50
2018-11-04T07:59:56.904Z,9.50
2018-11-04T08:02:25.866Z,9.50
2018-11-04T08:04:54.805Z,9.50
2018-11-04T08:07:24.776Z,9.50
2018-11-04T08:09:53.752Z,9.50
2018-11-04T08:12:22.725Z,9.50
2018-11-04T08:14:51.706Z,9.60
2018-11-04T08:17:20.746Z,9.60
2018-11-04T08:19:49.682Z,9.60
2018-11-04T08:22:18.748Z,9.60
2018-11-04T08:24:47.750Z,9.70
2018-11-04T08:27:16.695Z,9.70
2018-11-04T08:29:45.699Z,9.70
2018-11-04T08:32:14.969Z,9.70
2018-11-04T08:34:43.925Z,9.80
2018-11-04T08:37:12.933Z,9.80
2018-11-04T08:39:41.954Z,9.90
2018-11-04T08:42:10.848Z,9.90
2018-11-04T08:44:39.863Z,10.00
2018-11-04T08:47:09.008Z,9.90
2018-11-04T08:49:38.120Z,10.00
2018-11-04T08:52:07.074Z,10.00
2018-11-04T08:54:36.196Z,10.00
2018-11-04T08:57:05.292Z,10.00
2018-11-04T08:59:34.232Z,10.10
2018-11-04T09:02:03.447Z,10.20
2018-11-04T09:04:32.435Z,10.30
2018-11-04T09:07:01.409Z,10.30
2018-11-04T09:09:30.383Z,10.40
2018-11-04T09:11:59.376Z,10.40
2018-11-04T09:14:28.352Z,10.50
2018-11-04T09:16:57.335Z,10.60
2018-11-04T09:19:26.458Z,10.60
2018-11-04T09:21:55.670Z,10.70
2018-11-04T09:24:24.439Z,10.70
2018-11-04T09:26:53.415Z,10.70
2018-11-04T09:29:22.449Z,10.70
2018-11-04T09:31:51.366Z,10.70
2018-11-04T09:34:20.349Z,10.80
2018-11-04T09:36:49.319Z,10.90
2018-11-04T09:39:18.355Z,10.90
2018-11-04T09:41:47.306Z,11.10
2018-11-04T09:44:16.250Z,11.10
2018-11-04T09:46:45.290Z,11.00
2018-11-04T09:49:14.311Z,11.20
2018-11-04T09:51:43.251Z,11.40
2018-11-04T09:54:12.706Z,11.40
2018-11-04T09:56:41.835Z,11.30
2018-11-04T09:59:11.077Z,11.40
2018-11-04T10:01:40.046Z,11.50
2018-11-04T10:04:09.096Z,11.50
2018-11-04T10:06:38.094Z,11.50
2018-11-04T10:09:08.852Z,11.40
2018-11-04T10:11:37.779Z,11.30
2018-11-04T10:14:07.309Z,11.20
2018-11-04T10:16:36.527Z,11.20
2018-11-04T10:19:06.694Z,11.20
2018-11-04T10:21:35.552Z,11.20
2018-11-04T10:24:04.982Z,11.30
2018-11-04T10:26:33.912Z,11.30
2018-11-04T10:29:02.943Z,11.30
2018-11-04T10:31:31.879Z,11.40
2018-11-04T10:34:05.345Z,11.50
2018-11-04T10:36:34.279Z,11.50
2018-11-04T10:39:03.380Z,11.50
2018-11-04T10:41:32.357Z,11.50
2018-11-04T10:44:01.353Z,11.70
2018-11-04T10:46:30.297Z,11.80
2018-11-04T10:48:59.307Z,11.80
2018-11-04T10:51:28.253Z,11.70
2018-11-04T10:53:57.265Z,11.60
2018-11-04T10:56:26.213Z,11.60
2018-11-04T10:58:55.184Z,11.60
2018-11-04T11:01:24.139Z,11.50
2018-11-04T11:03:53.101Z,11.50
2018-11-04T11:06:22.519Z,11.50
2018-11-04T11:08:51.514Z,11.50
2018-11-04T11:11:20.438Z,11.60
2018-11-04T11:13:49.387Z,11.60
2018-11-04T11:16:18.424Z,11.50
2018-11-04T11:18:47.393Z,11.70
2018-11-04T11:21:16.395Z,11.70
2018-11-04T11:23:45.363Z,11.60
2018-11-04T11:26:14.308Z,11.60
2018-11-04T11:28:43.331Z,11.60
2018-11-04T11:31:13.000Z,11.50
2018-11-04T11:33:42.045Z,11.60
2018-11-04T11:36:11.037Z,11.60
2018-11-04T11:38:40.054Z,11.70
2018-11-04T11:41:08.977Z,11.70
2018-11-04T11:43:38.052Z,11.80
2018-11-04T11:46:07.024Z,11.90
2018-11-04T11:48:35.980Z,11.90
2018-11-04T11:51:05.127Z,11.80
2018-11-04T11:53:34.092Z,11.80
2018-11-04T11:56:03.032Z,11.80
2018-11-04T11:58:31.997Z,11.80
2018-11-04T12:01:00.997Z,11.80
2018-11-04T12:03:29.993Z,11.70
2018-11-04T12:05:58.938Z,11.70
2018-11-04T12:08:27.878Z,11.60
2018-11-04T12:10:56.837Z,11.60
2018-11-04T12:13:25.788Z,11.60
2018-11-04T12:15:54.793Z,11.60
2018-11-04T12:18:23.736Z,11.60
2018-11-04T12:20:52.758Z,11.70
2018-11-04T12:23:22.078Z,11.80
2018-11-04T12:25:51.042Z,11.70
2018-11-04T12:28:20.369Z,11.70
2018-11-04T12:30:49.315Z,11.70
2018-11-04T12:33:26.317Z,11.70
2018-11-04T12:35:56.512Z,11.60
2018-11-04T12:38:25.493Z,11.60
2018-11-04T12:40:54.460Z,11.60
2018-11-04T12:43:24.163Z,11.60
2018-11-04T12:45:53.151Z,11.50
2018-11-04T12:48:22.098Z,11.50
2018-11-04T12:50:51.076Z,11.60
2018-11-04T12:53:20.004Z,11.60
2018-11-04T12:55:48.980Z,11.50
2018-11-04T12:58:17.928Z,11.50
2018-11-04T13:00:46.907Z,11.60
2018-11-04T13:03:15.859Z,11.50
2018-11-04T13:05:44.828Z,11.70
2018-11-04T13:08:13.747Z,11.80
2018-11-04T13:10:42.711Z,11.80
2018-11-04T13:13:11.644Z,11.70
2018-11-04T13:15:40.582Z,11.90
2018-11-04T13:18:09.549Z,12.00
2018-11-04T13:20:39.064Z,12.00
2018-11-04T13:23:08.068Z,12.00
2018-11-04T13:25:37.043Z,11.90
2018-11-04T13:28:05.989Z,11.90
2018-11-04T13:30:35.420Z,12.00
2018-11-04T13:33:04.554Z,12.00
2018-11-04T13:35:41.537Z,12.00
2018-11-04T13:38:10.847Z,12.00
2018-11-04T13:40:39.855Z,11.80
2018-11-04T13:43:08.944Z,11.70
2018-11-04T13:45:37.839Z,11.80
2018-11-04T13:48:06.829Z,11.80
2018-11-04T13:50:35.787Z,11.80
2018-11-04T13:53:04.747Z,11.80
2018-11-04T13:55:33.711Z,11.80
2018-11-04T13:58:02.678Z,11.80
2018-11-04T14:00:31.665Z,11.70
2018-11-04T14:03:00.636Z,11.60
2018-11-04T14:05:29.577Z,11.60
2018-11-04T14:07:58.998Z,11.60
2018-11-04T14:10:27.996Z,11.60
2018-11-04T14:12:57.032Z,11.50
2018-11-04T14:15:26.035Z,11.60
2018-11-04T14:17:54.984Z,11.60
2018-11-04T14:20:23.952Z,11.70
2018-11-04T14:22:52.889Z,11.60
2018-11-04T14:25:21.880Z,11.70
2018-11-04T14:27:50.871Z,11.70
2018-11-04T14:30:19.821Z,11.60
2018-11-04T14:32:53.851Z,11.60
2018-11-04T14:35:22.956Z,11.70
2018-11-04T14:37:53.420Z,11.70
2018-11-04T14:40:27.403Z,11.70
2018-11-04T14:42:58.785Z,11.80
2018-11-04T14:45:29.844Z,11.80
2018-11-04T14:47:58.752Z,11.70
2018-11-04T14:50:27.821Z,11.70
2018-11-04T14:52:56.923Z,11.70
2018-11-04T14:55:25.869Z,11.60
2018-11-04T14:57:54.936Z,11.50
2018-11-04T15:00:23.914Z,11.50
2018-11-04T15:05:21.589Z,11.50
2018-11-04T15:07:50.578Z,11.50
2018-11-04T15:10:22.315Z,11.50
2018-11-04T15:12:51.347Z,11.50
2018-11-04T15:15:20.354Z,11.50
2018-11-04T15:17:49.331Z,11.60
2018-11-04T15:20:18.316Z,11.70
2018-11-04T15:22:49.355Z,11.60
2018-11-04T15:25:19.516Z,11.60
2018-11-04T15:27:48.818Z,11.70
2018-11-04T15:30:17.780Z,11.70
2018-11-04T15:32:46.871Z,11.70
2018-11-04T15:35:16.615Z,11.70
2018-11-04T15:37:45.931Z,11.90
2018-11-04T15:40:16.099Z,11.90
2018-11-04T15:42:45.062Z,11.90
2018-11-04T15:45:14.919Z,11.90
2018-11-04T15:47:44.548Z,11.90
2018-11-04T15:50:15.905Z,11.90
2018-11-04T15:52:45.033Z,11.90
2018-11-04T15:55:14.003Z,11.80
2018-11-04T15:57:43.098Z,11.80
2018-11-04T16:00:13.373Z,11.90
2018-11-04T16:02:42.400Z,11.90
2018-11-04T16:05:11.817Z,11.90
2018-11-04T16:07:40.766Z,11.90
2018-11-04T16:10:10.205Z,11.90
2018-11-04T16:12:39.355Z,11.80
2018-11-04T16:15:10.121Z,11.80
2018-11-04T16:17:39.102Z,11.80
2018-11-04T16:20:09.791Z,11.80
2018-11-04T16:22:39.372Z,11.80
2018-11-04T16:25:08.780Z,11.80
2018-11-04T16:27:37.843Z,11.70
2018-11-04T16:30:08.267Z,11.70
2018-11-04T16:32:37.709Z,11.60
2018-11-04T16:35:07.812Z,11.60
2018-11-04T16:37:38.054Z,11.50
2018-11-04T16:40:07.465Z,11.50
2018-11-04T16:42:36.500Z,11.40
2018-11-04T16:45:07.670Z,11.40
2018-11-04T16:47:36.897Z,11.40
2018-11-04T16:50:06.330Z,11.30
2018-11-04T16:52:35.256Z,11.20
2018-11-04T16:55:04.506Z,11.20
2018-11-04T16:57:33.819Z,11.20
2018-11-04T17:00:02.907Z,11.20
2018-11-04T17:02:31.907Z,11.30
2018-11-04T17:05:00.944Z,11.50
2018-11-04T17:07:29.910Z,11.40
2018-11-04T17:10:01.307Z,11.30
2018-11-04T17:12:30.426Z,11.30
2018-11-04T17:15:00.045Z,11.30
2018-11-04T17:17:29.019Z,11.40
2018-11-04T17:20:04.476Z,11.40
2018-11-04T17:22:34.459Z,11.40
2018-11-04T17:25:03.557Z,11.40
2018-11-04T17:27:32.502Z,11.40
2018-11-04T17:30:01.492Z,11.50
2018-11-04T17:32:30.540Z,11.50
2018-11-04T17:34:59.504Z,11.50
2018-11-04T17:37:28.456Z,11.50
2018-11-04T17:39:57.509Z,11.50
2018-11-04T17:42:27.937Z,11.60
2018-11-04T17:44:56.967Z,11.60
2018-11-04T17:47:25.979Z,11.60
2018-11-04T17:49:54.956Z,11.50
2018-11-04T17:52:23.934Z,11.50
2018-11-04T17:54:53.758Z,11.50
2018-11-04T17:57:22.700Z,11.50
2018-11-04T17:59:52.019Z,11.60
2018-11-04T18:02:21.988Z,11.60
2018-11-04T18:04:51.133Z,11.50
2018-11-04T18:07:20.102Z,11.50
2018-11-04T18:09:49.064Z,11.40
2018-11-04T18:12:18.012Z,11.50
2018-11-04T18:14:47.137Z,11.50
2018-11-04T18:17:16.098Z,11.50
2018-11-04T18:19:45.128Z,11.40
2018-11-04T18:22:14.118Z,11.40
2018-11-04T18:24:43.093Z,11.40
2018-11-04T18:27:12.152Z,11.50
2018-11-04T18:29:41.136Z,11.50
2018-11-04T18:32:10.159Z,11.50
2018-11-04T18:34:39.147Z,11.50
2018-11-04T18:37:10.965Z,11.50
2018-11-04T18:39:39.998Z,11.50
2018-11-04T18:42:09.092Z,11.40
2018-11-04T18:44:38.226Z,11.40
2018-11-04T18:47:07.295Z,11.30
2018-11-04T18:49:36.294Z,11.30
2018-11-04T18:52:05.817Z,11.30
2018-11-04T18:54:34.882Z,11.30
2018-11-04T18:57:03.846Z,11.30
2018-11-04T18:59:34.257Z,11.30
2018-11-04T19:02:03.301Z,11.30
2018-11-04T19:04:32.413Z,11.40
2018-11-04T19:07:01.390Z,11.30
2018-11-04T19:09:30.326Z,11.30
2018-11-04T19:11:59.403Z,11.30
2018-11-04T19:14:28.277Z,11.40
2018-11-04T19:16:57.227Z,11.40
2018-11-04T19:19:26.245Z,11.40
2018-11-04T19:21:55.258Z,11.40
2018-11-04T19:24:24.184Z,11.40
2018-11-04T19:26:53.198Z,11.50
2018-11-04T19:29:22.169Z,11.50
2018-11-04T19:31:51.156Z,11.50
2018-11-04T19:34:20.113Z,11.40
2018-11-04T19:36:49.141Z,11.40
2018-11-04T19:39:18.113Z,11.50
2018-11-04T19:41:48.603Z,11.40
2018-11-04T19:44:17.476Z,11.40
2018-11-04T19:46:46.463Z,11.50
2018-11-04T19:49:15.460Z,11.50
2018-11-04T19:51:44.489Z,11.40
2018-11-04T19:54:13.423Z,11.50
2018-11-04T19:56:43.040Z,11.50
2018-11-04T19:59:12.011Z,11.50
2018-11-04T20:01:40.949Z,11.40
2018-11-04T20:04:09.953Z,11.40
2018-11-04T20:06:39.045Z,11.40
2018-11-04T20:09:12.976Z,11.50
2018-11-04T20:11:42.308Z,11.50
2018-11-04T20:14:20.056Z,11.40
2018-11-04T20:16:50.139Z,11.40
2018-11-04T20:19:24.532Z,11.40
2018-11-04T20:21:54.077Z,11.50
2018-11-04T20:24:28.523Z,11.50
2018-11-04T20:26:57.572Z,11.60
2018-11-04T20:29:26.507Z,11.60
2018-11-04T20:32:00.883Z,11.50
2018-11-04T20:34:29.859Z,11.50
2018-11-04T20:36:58.826Z,11.50
2018-11-04T20:39:33.176Z,11.50
2018-11-04T20:42:02.127Z,11.50
2018-11-04T20:44:31.111Z,11.50
2018-11-04T20:47:00.070Z,11.50
2018-11-04T20:49:34.339Z,11.50
2018-11-04T20:52:03.378Z,11.50
2018-11-04T20:54:32.401Z,11.40
2018-11-04T20:57:06.796Z,11.30
2018-11-04T20:59:35.793Z,11.40
2018-11-04T21:02:11.478Z,11.50
2018-11-04T21:04:40.965Z,11.50
2018-11-04T21:07:10.340Z,11.50
2018-11-04T21:09:39.361Z,11.50
2018-11-04T21:12:08.301Z,11.50
2018-11-04T21:14:37.299Z,11.40
2018-11-04T21:17:06.377Z,11.40
2018-11-04T21:19:36.118Z,11.40
2018-11-04T21:22:09.220Z,11.40
2018-11-04T21:24:40.292Z,11.40
2018-11-04T21:27:12.479Z,11.30
2018-11-04T21:29:43.350Z,11.30
2018-11-04T21:32:12.896Z,11.30
2018-11-04T21:34:42.877Z,11.30
2018-11-04T21:37:12.757Z,11.30
2018-11-04T21:39:42.949Z,11.40
2018-11-04T21:42:13.953Z,11.30
2018-11-04T21:44:49.055Z,11.30
2018-11-04T21:47:18.699Z,11.50
2018-11-04T21:49:48.332Z,11.60
2018-11-04T21:52:18.139Z,11.50
2018-11-04T21:54:48.002Z,11.40
2018-11-04T21:57:17.664Z,11.40
2018-11-04T21:59:47.339Z,11.50
2018-11-04T22:02:16.707Z,11.40
2018-11-04T22:04:45.766Z,11.40
2018-11-04T22:07:14.667Z,11.30
2018-11-04T22:09:43.719Z,11.50
2018-11-04T22:12:13.531Z,11.50
2018-11-04T22:14:42.532Z,11.50
2018-11-04T22:17:11.575Z,11.50
2018-11-04T22:19:47.566Z,11.50
2018-11-04T22:22:23.197Z,11.50
2018-11-04T22:24:59.455Z,11.50
2018-11-04T22:27:34.301Z,11.40
2018-11-04T22:30:13.345Z,11.50
2018-11-04T22:32:44.840Z,11.50
2018-11-04T22:35:15.057Z,11.50
2018-11-04T22:37:44.190Z,11.50
2018-11-04T22:40:13.179Z,11.50
2018-11-04T22:42:42.556Z,11.50
2018-11-04T22:45:12.690Z,11.50
2018-11-04T22:47:42.382Z,11.50
2018-11-04T22:50:13.448Z,11.50
2018-11-04T22:52:42.924Z,11.50
2018-11-04T22:55:12.774Z,11.50
2018-11-04T22:57:42.354Z,11.60
2018-11-04T23:00:17.257Z,11.50
2018-11-04T23:02:47.383Z,11.60
2018-11-04T23:05:21.846Z,11.70
2018-11-04T23:07:50.938Z,11.70
2018-11-04T23:10:19.927Z,11.70
2018-11-04T23:12:48.888Z,11.50
2018-11-04T23:15:17.993Z,11.60
2018-11-04T23:17:46.980Z,11.70
2018-11-04T23:20:15.982Z,11.70
2018-11-04T23:22:44.993Z,11.70
2018-11-04T23:25:14.688Z,11.80
2018-11-04T23:27:44.217Z,11.80
2018-11-04T23:30:15.540Z,11.80
2018-11-04T23:32:45.155Z,11.80
2018-11-04T23:35:14.177Z,11.80
2018-11-04T23:37:43.981Z,11.70
2018-11-04T23:40:13.189Z,11.70
2018-11-04T23:42:42.238Z,11.70
2018-11-04T23:45:12.616Z,11.70
2018-11-04T23:47:41.861Z,11.60
2018-11-04T23:50:13.873Z,11.70
2018-11-04T23:52:43.169Z,11.70
2018-11-04T23:55:13.058Z,11.70
2018-11-04T23:57:42.048Z,11.80
